sensor_id;sensor_type;location;lat;lon;timestamp;P1;durP1;ratioP1;P2;durP2;ratioP2
70150;SDS011;57517;43.562;19.540;2023-11-18T00:00:49;12.35;;;8.50;;
70150;SDS011;57517;43.562;19.540;2023-11-18T00:03:15;9.43;;;6.85;;
70150;SDS011;57517;43.562;19.540;2023-11-18T00:05:42;14.02;;;10.65;;
70150;SDS011;57517;43.562;19.540;2023-11-18T00:08:07;12.60;;;9.55;;
70150;SDS011;57517;43.562;19.540;2023-11-18T00:10:33;13.27;;;8.60;;
70150;SDS011;57517;43.562;19.540;2023-11-18T00:13:00;7.30;;;5.70;;
70150;SDS011;57517;43.562;19.540;2023-11-18T00:15:27;11.57;;;7.50;;
70150;SDS011;57517;43.562;19.540;2023-11-18T00:17:53;12.63;;;7.93;;
70150;SDS011;57517;43.562;19.540;2023-11-18T00:20:19;9.90;;;5.85;;
70150;SDS011;57517;43.562;19.540;2023-11-18T00:22:45;13.32;;;10.25;;
70150;SDS011;57517;43.562;19.540;2023-11-18T00:25:11;12.27;;;7.32;;
70150;SDS011;57517;43.562;19.540;2023-11-18T00:27:39;11.50;;;8.80;;
70150;SDS011;57517;43.562;19.540;2023-11-18T00:30:05;9.18;;;6.88;;
70150;SDS011;57517;43.562;19.540;2023-11-18T00:32:33;7.72;;;5.32;;
70150;SDS011;57517;43.562;19.540;2023-11-18T00:35:00;8.35;;;6.00;;
70150;SDS011;57517;43.562;19.540;2023-11-18T00:37:26;9.88;;;6.20;;
70150;SDS011;57517;43.562;19.540;2023-11-18T00:39:52;7.93;;;4.95;;
70150;SDS011;57517;43.562;19.540;2023-11-18T00:42:18;8.38;;;6.50;;
70150;SDS011;57517;43.562;19.540;2023-11-18T00:44:44;6.60;;;4.75;;
70150;SDS011;57517;43.562;19.540;2023-11-18T00:47:09;7.20;;;4.25;;
70150;SDS011;57517;43.562;19.540;2023-11-18T00:49:35;7.30;;;4.88;;
70150;SDS011;57517;43.562;19.540;2023-11-18T00:52:01;5.22;;;4.05;;
70150;SDS011;57517;43.562;19.540;2023-11-18T00:54:28;5.05;;;4.10;;
70150;SDS011;57517;43.562;19.540;2023-11-18T00:56:54;5.85;;;4.05;;
70150;SDS011;57517;43.562;19.540;2023-11-18T00:59:20;6.47;;;4.20;;
70150;SDS011;57517;43.562;19.540;2023-11-18T01:01:45;5.25;;;4.00;;
70150;SDS011;57517;43.562;19.540;2023-11-18T01:04:11;7.57;;;4.22;;
70150;SDS011;57517;43.562;19.540;2023-11-18T01:06:37;6.40;;;4.03;;
70150;SDS011;57517;43.562;19.540;2023-11-18T01:09:03;4.80;;;4.05;;
70150;SDS011;57517;43.562;19.540;2023-11-18T01:11:29;7.60;;;4.28;;
70150;SDS011;57517;43.562;19.540;2023-11-18T01:13:54;5.43;;;4.03;;
70150;SDS011;57517;43.562;19.540;2023-11-18T01:16:21;5.10;;;4.00;;
70150;SDS011;57517;43.562;19.540;2023-11-18T01:18:47;4.15;;;3.60;;
70150;SDS011;57517;43.562;19.540;2023-11-18T01:21:13;4.95;;;4.07;;
70150;SDS011;57517;43.562;19.540;2023-11-18T01:23:42;4.95;;;3.65;;
70150;SDS011;57517;43.562;19.540;2023-11-18T01:26:10;6.28;;;4.28;;
70150;SDS011;57517;43.562;19.540;2023-11-18T01:28:37;5.10;;;4.00;;
70150;SDS011;57517;43.562;19.540;2023-11-18T01:31:08;5.00;;;3.78;;
70150;SDS011;57517;43.562;19.540;2023-11-18T01:33:43;5.03;;;3.90;;
70150;SDS011;57517;43.562;19.540;2023-11-18T01:36:10;5.57;;;4.07;;
70150;SDS011;57517;43.562;19.540;2023-11-18T01:38:37;5.72;;;3.63;;
70150;SDS011;57517;43.562;19.540;2023-11-18T01:41:06;6.28;;;3.92;;
70150;SDS011;57517;43.562;19.540;2023-11-18T01:43:34;5.68;;;4.03;;
70150;SDS011;57517;43.562;19.540;2023-11-18T01:46:00;6.10;;;4.13;;
70150;SDS011;57517;43.562;19.540;2023-11-18T01:48:30;4.25;;;3.28;;
70150;SDS011;57517;43.562;19.540;2023-11-18T01:51:01;5.43;;;3.28;;
70150;SDS011;57517;43.562;19.540;2023-11-18T01:53:29;5.45;;;3.20;;
70150;SDS011;57517;43.562;19.540;2023-11-18T01:55:56;5.78;;;3.47;;
70150;SDS011;57517;43.562;19.540;2023-11-18T01:58:24;4.47;;;3.30;;
70150;SDS011;57517;43.562;19.540;2023-11-18T02:00:51;5.90;;;3.10;;
70150;SDS011;57517;43.562;19.540;2023-11-18T02:03:17;4.65;;;3.53;;
70150;SDS011;57517;43.562;19.540;2023-11-18T02:05:43;5.57;;;3.60;;
70150;SDS011;57517;43.562;19.540;2023-11-18T02:08:09;4.50;;;3.10;;
70150;SDS011;57517;43.562;19.540;2023-11-18T02:10:48;4.72;;;2.97;;
70150;SDS011;57517;43.562;19.540;2023-11-18T02:13:24;4.70;;;3.28;;
70150;SDS011;57517;43.562;19.540;2023-11-18T02:15:56;5.53;;;3.45;;
70150;SDS011;57517;43.562;19.540;2023-11-18T02:18:26;4.65;;;3.20;;
70150;SDS011;57517;43.562;19.540;2023-11-18T02:20:55;4.60;;;3.53;;
70150;SDS011;57517;43.562;19.540;2023-11-18T02:23:24;5.28;;;3.20;;
70150;SDS011;57517;43.562;19.540;2023-11-18T02:25:53;4.45;;;3.38;;
70150;SDS011;57517;43.562;19.540;2023-11-18T02:28:22;4.70;;;3.15;;
70150;SDS011;57517;43.562;19.540;2023-11-18T02:30:49;4.25;;;2.92;;
70150;SDS011;57517;43.562;19.540;2023-11-18T02:33:18;5.70;;;2.85;;
70150;SDS011;57517;43.562;19.540;2023-11-18T02:36:19;4.82;;;3.03;;
70150;SDS011;57517;43.562;19.540;2023-11-18T02:38:51;5.10;;;3.10;;
70150;SDS011;57517;43.562;19.540;2023-11-18T02:41:20;4.28;;;2.63;;
70150;SDS011;57517;43.562;19.540;2023-11-18T02:43:47;4.55;;;3.00;;
70150;SDS011;57517;43.562;19.540;2023-11-18T02:46:14;3.72;;;2.78;;
70150;SDS011;57517;43.562;19.540;2023-11-18T02:48:41;4.38;;;2.70;;
70150;SDS011;57517;43.562;19.540;2023-11-18T02:51:08;4.80;;;2.90;;
70150;SDS011;57517;43.562;19.540;2023-11-18T02:53:37;3.88;;;2.50;;
70150;SDS011;57517;43.562;19.540;2023-11-18T02:56:03;4.35;;;3.15;;
70150;SDS011;57517;43.562;19.540;2023-11-18T02:58:29;4.30;;;3.00;;
70150;SDS011;57517;43.562;19.540;2023-11-18T03:00:55;3.70;;;2.47;;
70150;SDS011;57517;43.562;19.540;2023-11-18T03:03:25;5.13;;;2.60;;
70150;SDS011;57517;43.562;19.540;2023-11-18T03:05:52;4.53;;;3.08;;
70150;SDS011;57517;43.562;19.540;2023-11-18T03:08:18;4.35;;;2.80;;
70150;SDS011;57517;43.562;19.540;2023-11-18T03:10:44;5.05;;;3.22;;
70150;SDS011;57517;43.562;19.540;2023-11-18T03:13:10;4.05;;;2.67;;
70150;SDS011;57517;43.562;19.540;2023-11-18T03:15:37;5.35;;;2.80;;
70150;SDS011;57517;43.562;19.540;2023-11-18T03:18:03;3.60;;;2.40;;
70150;SDS011;57517;43.562;19.540;2023-11-18T03:20:30;5.22;;;3.25;;
70150;SDS011;57517;43.562;19.540;2023-11-18T03:22:58;4.57;;;3.00;;
70150;SDS011;57517;43.562;19.540;2023-11-18T03:25:25;4.35;;;3.30;;
70150;SDS011;57517;43.562;19.540;2023-11-18T03:27:51;3.50;;;2.78;;
70150;SDS011;57517;43.562;19.540;2023-11-18T03:30:19;3.33;;;2.33;;
70150;SDS011;57517;43.562;19.540;2023-11-18T03:32:45;4.63;;;2.70;;
70150;SDS011;57517;43.562;19.540;2023-11-18T03:35:11;3.30;;;2.22;;
70150;SDS011;57517;43.562;19.540;2023-11-18T03:37:40;5.97;;;2.83;;
70150;SDS011;57517;43.562;19.540;2023-11-18T03:40:07;3.55;;;2.33;;
70150;SDS011;57517;43.562;19.540;2023-11-18T03:42:34;3.45;;;2.45;;
70150;SDS011;57517;43.562;19.540;2023-11-18T03:45:00;3.33;;;2.40;;
70150;SDS011;57517;43.562;19.540;2023-11-18T03:47:26;2.75;;;2.25;;
70150;SDS011;57517;43.562;19.540;2023-11-18T03:49:52;3.50;;;2.10;;
70150;SDS011;57517;43.562;19.540;2023-11-18T03:52:19;3.42;;;2.15;;
70150;SDS011;57517;43.562;19.540;2023-11-18T03:54:45;3.80;;;2.70;;
70150;SDS011;57517;43.562;19.540;2023-11-18T03:57:11;3.67;;;2.42;;
70150;SDS011;57517;43.562;19.540;2023-11-18T03:59:38;3.50;;;1.80;;
70150;SDS011;57517;43.562;19.540;2023-11-18T04:02:06;3.00;;;1.90;;
70150;SDS011;57517;43.562;19.540;2023-11-18T04:04:32;3.33;;;2.10;;
70150;SDS011;57517;43.562;19.540;2023-11-18T04:06:58;4.07;;;2.00;;
70150;SDS011;57517;43.562;19.540;2023-11-18T04:09:26;3.15;;;1.80;;
70150;SDS011;57517;43.562;19.540;2023-11-18T04:11:52;3.00;;;2.05;;
70150;SDS011;57517;43.562;19.540;2023-11-18T04:14:18;3.13;;;1.95;;
70150;SDS011;57517;43.562;19.540;2023-11-18T04:16:45;3.90;;;2.17;;
70150;SDS011;57517;43.562;19.540;2023-11-18T04:19:11;3.10;;;2.03;;
70150;SDS011;57517;43.562;19.540;2023-11-18T04:21:37;2.78;;;1.90;;
70150;SDS011;57517;43.562;19.540;2023-11-18T04:24:03;3.50;;;2.28;;
70150;SDS011;57517;43.562;19.540;2023-11-18T04:26:30;3.75;;;2.22;;
70150;SDS011;57517;43.562;19.540;2023-11-18T04:28:57;3.08;;;2.05;;
70150;SDS011;57517;43.562;19.540;2023-11-18T04:31:26;3.58;;;1.83;;
70150;SDS011;57517;43.562;19.540;2023-11-18T04:33:52;3.63;;;2.00;;
70150;SDS011;57517;43.562;19.540;2023-11-18T04:36:20;3.35;;;2.05;;
70150;SDS011;57517;43.562;19.540;2023-11-18T04:38:47;4.38;;;2.92;;
70150;SDS011;57517;43.562;19.540;2023-11-18T04:41:15;3.55;;;2.08;;
70150;SDS011;57517;43.562;19.540;2023-11-18T04:43:41;4.53;;;2.35;;
70150;SDS011;57517;43.562;19.540;2023-11-18T04:46:07;2.80;;;1.83;;
70150;SDS011;57517;43.562;19.540;2023-11-18T04:48:33;4.30;;;2.30;;
70150;SDS011;57517;43.562;19.540;2023-11-18T04:50:59;5.40;;;2.95;;
70150;SDS011;57517;43.562;19.540;2023-11-18T04:53:26;4.30;;;3.05;;
70150;SDS011;57517;43.562;19.540;2023-11-18T04:55:51;4.20;;;2.58;;
70150;SDS011;57517;43.562;19.540;2023-11-18T04:58:18;4.03;;;2.63;;
70150;SDS011;57517;43.562;19.540;2023-11-18T05:00:44;4.45;;;2.45;;
70150;SDS011;57517;43.562;19.540;2023-11-18T05:03:10;4.50;;;2.80;;
70150;SDS011;57517;43.562;19.540;2023-11-18T05:05:39;4.63;;;2.80;;
70150;SDS011;57517;43.562;19.540;2023-11-18T05:08:05;5.50;;;2.92;;
70150;SDS011;57517;43.562;19.540;2023-11-18T05:10:32;4.10;;;2.83;;
70150;SDS011;57517;43.562;19.540;2023-11-18T05:12:58;3.42;;;2.38;;
70150;SDS011;57517;43.562;19.540;2023-11-18T05:15:25;5.90;;;2.60;;
70150;SDS011;57517;43.562;19.540;2023-11-18T05:17:54;4.00;;;2.25;;
70150;SDS011;57517;43.562;19.540;2023-11-18T05:20:20;4.00;;;2.22;;
70150;SDS011;57517;43.562;19.540;2023-11-18T05:22:47;3.53;;;2.20;;
70150;SDS011;57517;43.562;19.540;2023-11-18T05:25:13;3.70;;;2.45;;
70150;SDS011;57517;43.562;19.540;2023-11-18T05:27:39;3.40;;;2.00;;
70150;SDS011;57517;43.562;19.540;2023-11-18T05:30:06;3.88;;;1.90;;
70150;SDS011;57517;43.562;19.540;2023-11-18T05:32:33;4.65;;;2.10;;
70150;SDS011;57517;43.562;19.540;2023-11-18T05:34:59;3.13;;;1.80;;
70150;SDS011;57517;43.562;19.540;2023-11-18T05:37:25;2.50;;;1.60;;
70150;SDS011;57517;43.562;19.540;2023-11-18T05:39:54;3.05;;;1.83;;
70150;SDS011;57517;43.562;19.540;2023-11-18T05:42:31;3.60;;;2.30;;
70150;SDS011;57517;43.562;19.540;2023-11-18T05:44:57;4.47;;;2.10;;
70150;SDS011;57517;43.562;19.540;2023-11-18T05:47:27;3.72;;;2.10;;
70150;SDS011;57517;43.562;19.540;2023-11-18T05:49:53;4.47;;;2.75;;
70150;SDS011;57517;43.562;19.540;2023-11-18T05:52:20;4.53;;;1.88;;
70150;SDS011;57517;43.562;19.540;2023-11-18T05:54:47;4.30;;;3.08;;
70150;SDS011;57517;43.562;19.540;2023-11-18T05:57:14;4.45;;;2.58;;
70150;SDS011;57517;43.562;19.540;2023-11-18T05:59:41;4.35;;;2.72;;
70150;SDS011;57517;43.562;19.540;2023-11-18T06:02:08;4.80;;;3.25;;
70150;SDS011;57517;43.562;19.540;2023-11-18T06:04:34;4.85;;;3.00;;
70150;SDS011;57517;43.562;19.540;2023-11-18T06:07:00;5.70;;;3.80;;
70150;SDS011;57517;43.562;19.540;2023-11-18T06:09:27;4.35;;;2.72;;
70150;SDS011;57517;43.562;19.540;2023-11-18T06:11:53;9.90;;;6.70;;
70150;SDS011;57517;43.562;19.540;2023-11-18T06:14:20;7.55;;;4.03;;
70150;SDS011;57517;43.562;19.540;2023-11-18T06:16:49;15.40;;;9.02;;
70150;SDS011;57517;43.562;19.540;2023-11-18T06:19:16;10.30;;;6.50;;
70150;SDS011;57517;43.562;19.540;2023-11-18T06:21:41;6.50;;;4.68;;
70150;SDS011;57517;43.562;19.540;2023-11-18T06:24:07;6.63;;;4.38;;
70150;SDS011;57517;43.562;19.540;2023-11-18T06:26:36;7.65;;;5.03;;
70150;SDS011;57517;43.562;19.540;2023-11-18T06:29:02;5.85;;;4.45;;
70150;SDS011;57517;43.562;19.540;2023-11-18T06:31:29;4.72;;;3.17;;
70150;SDS011;57517;43.562;19.540;2023-11-18T06:33:55;10.48;;;7.43;;
70150;SDS011;57517;43.562;19.540;2023-11-18T06:36:21;15.18;;;10.32;;
70150;SDS011;57517;43.562;19.540;2023-11-18T06:38:49;9.63;;;6.43;;
70150;SDS011;57517;43.562;19.540;2023-11-18T06:41:16;6.40;;;4.45;;
70150;SDS011;57517;43.562;19.540;2023-11-18T06:43:46;6.00;;;4.68;;
70150;SDS011;57517;43.562;19.540;2023-11-18T06:46:21;5.30;;;3.70;;
70150;SDS011;57517;43.562;19.540;2023-11-18T06:48:51;5.88;;;3.72;;
70150;SDS011;57517;43.562;19.540;2023-11-18T06:51:22;8.23;;;5.32;;
70150;SDS011;57517;43.562;19.540;2023-11-18T06:53:53;8.73;;;5.75;;
70150;SDS011;57517;43.562;19.540;2023-11-18T06:56:22;8.27;;;6.07;;
70150;SDS011;57517;43.562;19.540;2023-11-18T06:58:55;13.90;;;9.32;;
70150;SDS011;57517;43.562;19.540;2023-11-18T07:01:22;20.58;;;12.70;;
70150;SDS011;57517;43.562;19.540;2023-11-18T07:03:48;11.82;;;8.65;;
70150;SDS011;57517;43.562;19.540;2023-11-18T07:06:17;42.33;;;28.35;;
70150;SDS011;57517;43.562;19.540;2023-11-18T07:08:48;10.98;;;8.02;;
70150;SDS011;57517;43.562;19.540;2023-11-18T07:11:14;8.32;;;7.13;;
70150;SDS011;57517;43.562;19.540;2023-11-18T07:13:41;10.50;;;9.43;;
70150;SDS011;57517;43.562;19.540;2023-11-18T07:16:07;11.93;;;8.65;;
70150;SDS011;57517;43.562;19.540;2023-11-18T07:18:34;9.23;;;7.55;;
70150;SDS011;57517;43.562;19.540;2023-11-18T07:21:02;4.63;;;3.60;;
70150;SDS011;57517;43.562;19.540;2023-11-18T07:23:30;5.25;;;3.80;;
70150;SDS011;57517;43.562;19.540;2023-11-18T07:25:56;7.88;;;5.28;;
70150;SDS011;57517;43.562;19.540;2023-11-18T07:28:23;6.43;;;4.70;;
70150;SDS011;57517;43.562;19.540;2023-11-18T07:30:49;6.45;;;3.65;;
70150;SDS011;57517;43.562;19.540;2023-11-18T07:33:16;6.50;;;4.93;;
70150;SDS011;57517;43.562;19.540;2023-11-18T07:35:44;6.10;;;3.50;;
70150;SDS011;57517;43.562;19.540;2023-11-18T07:38:11;5.57;;;4.40;;
70150;SDS011;57517;43.562;19.540;2023-11-18T07:40:38;6.18;;;3.33;;
70150;SDS011;57517;43.562;19.540;2023-11-18T07:43:10;5.03;;;3.42;;
70150;SDS011;57517;43.562;19.540;2023-11-18T07:45:36;4.70;;;3.22;;
70150;SDS011;57517;43.562;19.540;2023-11-18T07:48:04;8.43;;;5.88;;
70150;SDS011;57517;43.562;19.540;2023-11-18T07:50:34;6.43;;;4.57;;
70150;SDS011;57517;43.562;19.540;2023-11-18T07:53:00;9.48;;;6.32;;
70150;SDS011;57517;43.562;19.540;2023-11-18T07:55:27;7.90;;;5.57;;
70150;SDS011;57517;43.562;19.540;2023-11-18T07:57:53;12.98;;;8.63;;
70150;SDS011;57517;43.562;19.540;2023-11-18T08:00:19;16.25;;;11.18;;
70150;SDS011;57517;43.562;19.540;2023-11-18T08:02:46;11.52;;;8.13;;
70150;SDS011;57517;43.562;19.540;2023-11-18T08:05:12;6.00;;;3.97;;
70150;SDS011;57517;43.562;19.540;2023-11-18T08:07:42;8.23;;;5.45;;
70150;SDS011;57517;43.562;19.540;2023-11-18T08:10:09;5.95;;;3.55;;
70150;SDS011;57517;43.562;19.540;2023-11-18T08:12:38;9.02;;;5.03;;
70150;SDS011;57517;43.562;19.540;2023-11-18T08:15:08;7.47;;;4.95;;
70150;SDS011;57517;43.562;19.540;2023-11-18T08:17:34;11.80;;;7.60;;
70150;SDS011;57517;43.562;19.540;2023-11-18T08:20:00;18.25;;;11.10;;
70150;SDS011;57517;43.562;19.540;2023-11-18T08:22:31;8.85;;;6.70;;
70150;SDS011;57517;43.562;19.540;2023-11-18T08:24:57;9.77;;;7.18;;
70150;SDS011;57517;43.562;19.540;2023-11-18T08:27:24;5.68;;;3.83;;
70150;SDS011;57517;43.562;19.540;2023-11-18T08:29:49;14.55;;;9.50;;
70150;SDS011;57517;43.562;19.540;2023-11-18T08:32:15;17.35;;;9.80;;
70150;SDS011;57517;43.562;19.540;2023-11-18T08:34:42;8.77;;;6.00;;
70150;SDS011;57517;43.562;19.540;2023-11-18T08:37:08;13.90;;;7.57;;
70150;SDS011;57517;43.562;19.540;2023-11-18T08:39:34;13.13;;;7.85;;
70150;SDS011;57517;43.562;19.540;2023-11-18T08:42:00;9.95;;;6.05;;
70150;SDS011;57517;43.562;19.540;2023-11-18T08:44:26;10.88;;;6.57;;
70150;SDS011;57517;43.562;19.540;2023-11-18T08:46:53;12.40;;;6.05;;
70150;SDS011;57517;43.562;19.540;2023-11-18T08:49:19;7.03;;;4.60;;
70150;SDS011;57517;43.562;19.540;2023-11-18T08:51:50;5.40;;;2.90;;
70150;SDS011;57517;43.562;19.540;2023-11-18T08:54:23;3.22;;;2.45;;
70150;SDS011;57517;43.562;19.540;2023-11-18T08:56:53;6.60;;;4.10;;
70150;SDS011;57517;43.562;19.540;2023-11-18T08:59:20;5.75;;;4.35;;
70150;SDS011;57517;43.562;19.540;2023-11-18T09:01:53;5.50;;;3.88;;
70150;SDS011;57517;43.562;19.540;2023-11-18T09:04:25;13.30;;;7.43;;
70150;SDS011;57517;43.562;19.540;2023-11-18T09:06:51;10.90;;;6.32;;
70150;SDS011;57517;43.562;19.540;2023-11-18T09:09:20;11.35;;;6.82;;
70150;SDS011;57517;43.562;19.540;2023-11-18T09:11:55;5.70;;;4.38;;
70150;SDS011;57517;43.562;19.540;2023-11-18T09:14:23;10.52;;;6.60;;
70150;SDS011;57517;43.562;19.540;2023-11-18T09:16:50;8.07;;;4.47;;
70150;SDS011;57517;43.562;19.540;2023-11-18T09:19:17;12.68;;;7.95;;
70150;SDS011;57517;43.562;19.540;2023-11-18T09:21:46;5.25;;;3.35;;
70150;SDS011;57517;43.562;19.540;2023-11-18T09:24:12;10.25;;;6.22;;
70150;SDS011;57517;43.562;19.540;2023-11-18T09:26:39;4.07;;;3.00;;
70150;SDS011;57517;43.562;19.540;2023-11-18T09:29:06;5.78;;;3.83;;
70150;SDS011;57517;43.562;19.540;2023-11-18T09:31:36;4.03;;;2.58;;
70150;SDS011;57517;43.562;19.540;2023-11-18T09:34:02;6.50;;;5.22;;
70150;SDS011;57517;43.562;19.540;2023-11-18T09:36:32;5.50;;;3.85;;
70150;SDS011;57517;43.562;19.540;2023-11-18T09:38:59;10.35;;;5.63;;
70150;SDS011;57517;43.562;19.540;2023-11-18T09:41:25;51.47;;;33.30;;
70150;SDS011;57517;43.562;19.540;2023-11-18T09:43:52;32.53;;;21.98;;
70150;SDS011;57517;43.562;19.540;2023-11-18T09:46:25;10.63;;;8.43;;
70150;SDS011;57517;43.562;19.540;2023-11-18T09:48:52;7.15;;;4.55;;
70150;SDS011;57517;43.562;19.540;2023-11-18T09:51:39;6.57;;;5.20;;
70150;SDS011;57517;43.562;19.540;2023-11-18T09:57:05;10.48;;;7.57;;
70150;SDS011;57517;43.562;19.540;2023-11-18T10:02:24;7.43;;;5.60;;
70150;SDS011;57517;43.562;19.540;2023-11-18T10:04:50;8.50;;;5.72;;
70150;SDS011;57517;43.562;19.540;2023-11-18T10:07:23;6.22;;;3.65;;
70150;SDS011;57517;43.562;19.540;2023-11-18T10:09:57;9.30;;;6.93;;
70150;SDS011;57517;43.562;19.540;2023-11-18T10:12:23;6.00;;;3.90;;
70150;SDS011;57517;43.562;19.540;2023-11-18T10:14:51;5.38;;;4.10;;
70150;SDS011;57517;43.562;19.540;2023-11-18T10:17:17;6.28;;;4.10;;
70150;SDS011;57517;43.562;19.540;2023-11-18T10:19:53;6.90;;;5.05;;
70150;SDS011;57517;43.562;19.540;2023-11-18T10:22:24;7.70;;;6.88;;
70150;SDS011;57517;43.562;19.540;2023-11-18T10:24:51;3.58;;;2.80;;
70150;SDS011;57517;43.562;19.540;2023-11-18T10:27:26;6.63;;;4.57;;
70150;SDS011;57517;43.562;19.540;2023-11-18T10:29:56;7.03;;;5.00;;
70150;SDS011;57517;43.562;19.540;2023-11-18T10:32:29;7.32;;;6.38;;
70150;SDS011;57517;43.562;19.540;2023-11-18T10:35:00;9.13;;;6.85;;
70150;SDS011;57517;43.562;19.540;2023-11-18T10:37:26;11.13;;;8.18;;
70150;SDS011;57517;43.562;19.540;2023-11-18T10:39:56;10.88;;;6.57;;
70150;SDS011;57517;43.562;19.540;2023-11-18T10:42:25;9.02;;;6.10;;
70150;SDS011;57517;43.562;19.540;2023-11-18T10:44:55;10.95;;;9.10;;
70150;SDS011;57517;43.562;19.540;2023-11-18T10:47:25;6.32;;;5.25;;
70150;SDS011;57517;43.562;19.540;2023-11-18T10:49:52;8.23;;;4.68;;
70150;SDS011;57517;43.562;19.540;2023-11-18T10:52:21;7.43;;;5.68;;
70150;SDS011;57517;43.562;19.540;2023-11-18T10:55:00;10.02;;;7.15;;
70150;SDS011;57517;43.562;19.540;2023-11-18T10:57:32;7.88;;;5.43;;
70150;SDS011;57517;43.562;19.540;2023-11-18T11:00:01;13.82;;;6.85;;
70150;SDS011;57517;43.562;19.540;2023-11-18T11:02:38;6.68;;;4.18;;
70150;SDS011;57517;43.562;19.540;2023-11-18T11:05:06;5.97;;;4.32;;
70150;SDS011;57517;43.562;19.540;2023-11-18T11:07:33;7.97;;;5.40;;
70150;SDS011;57517;43.562;19.540;2023-11-18T11:09:59;10.40;;;8.63;;
70150;SDS011;57517;43.562;19.540;2023-11-18T11:12:29;19.67;;;13.15;;
70150;SDS011;57517;43.562;19.540;2023-11-18T11:15:04;48.10;;;26.80;;
70150;SDS011;57517;43.562;19.540;2023-11-18T11:17:40;102.50;;;54.75;;
70150;SDS011;57517;43.562;19.540;2023-11-18T11:20:12;48.95;;;33.17;;
70150;SDS011;57517;43.562;19.540;2023-11-18T11:26:02;7.28;;;4.95;;
70150;SDS011;57517;43.562;19.540;2023-11-18T11:28:37;5.72;;;4.20;;
70150;SDS011;57517;43.562;19.540;2023-11-18T11:31:21;5.60;;;3.83;;
70150;SDS011;57517;43.562;19.540;2023-11-18T11:33:57;6.50;;;3.92;;
70150;SDS011;57517;43.562;19.540;2023-11-18T11:36:33;4.68;;;3.70;;
70150;SDS011;57517;43.562;19.540;2023-11-18T11:39:06;6.28;;;3.70;;
70150;SDS011;57517;43.562;19.540;2023-11-18T11:41:43;4.65;;;2.90;;
70150;SDS011;57517;43.562;19.540;2023-11-18T11:44:15;6.82;;;4.03;;
70150;SDS011;57517;43.562;19.540;2023-11-18T11:46:44;5.40;;;3.45;;
70150;SDS011;57517;43.562;19.540;2023-11-18T11:49:18;7.55;;;5.22;;
70150;SDS011;57517;43.562;19.540;2023-11-18T11:51:54;7.30;;;4.78;;
70150;SDS011;57517;43.562;19.540;2023-11-18T11:54:48;7.72;;;5.90;;
70150;SDS011;57517;43.562;19.540;2023-11-18T11:57:24;5.22;;;4.20;;
70150;SDS011;57517;43.562;19.540;2023-11-18T12:02:21;6.40;;;3.97;;
70150;SDS011;57517;43.562;19.540;2023-11-18T12:04:54;5.57;;;4.15;;
70150;SDS011;57517;43.562;19.540;2023-11-18T12:07:23;5.95;;;3.03;;
70150;SDS011;57517;43.562;19.540;2023-11-18T12:09:58;11.85;;;8.00;;
70150;SDS011;57517;43.562;19.540;2023-11-18T12:12:26;11.35;;;9.20;;
70150;SDS011;57517;43.562;19.540;2023-11-18T12:14:53;11.02;;;8.02;;
70150;SDS011;57517;43.562;19.540;2023-11-18T12:17:23;9.38;;;6.60;;
70150;SDS011;57517;43.562;19.540;2023-11-18T12:20:01;10.00;;;6.90;;
70150;SDS011;57517;43.562;19.540;2023-11-18T12:25:39;5.43;;;3.15;;
70150;SDS011;57517;43.562;19.540;2023-11-18T12:28:08;5.82;;;3.55;;
70150;SDS011;57517;43.562;19.540;2023-11-18T12:30:43;6.32;;;4.45;;
70150;SDS011;57517;43.562;19.540;2023-11-18T12:33:26;32.72;;;18.17;;
70150;SDS011;57517;43.562;19.540;2023-11-18T12:42:07;24.42;;;12.13;;
70150;SDS011;57517;43.562;19.540;2023-11-18T12:47:24;23.73;;;19.65;;
70150;SDS011;57517;43.562;19.540;2023-11-18T12:49:53;24.50;;;18.85;;
70150;SDS011;57517;43.562;19.540;2023-11-18T12:52:20;12.00;;;7.80;;
70150;SDS011;57517;43.562;19.540;2023-11-18T12:54:47;9.63;;;7.60;;
70150;SDS011;57517;43.562;19.540;2023-11-18T12:57:17;11.90;;;7.65;;
70150;SDS011;57517;43.562;19.540;2023-11-18T12:59:48;21.35;;;11.98;;
70150;SDS011;57517;43.562;19.540;2023-11-18T13:02:15;9.35;;;7.22;;
70150;SDS011;57517;43.562;19.540;2023-11-18T13:04:48;9.57;;;7.25;;
70150;SDS011;57517;43.562;19.540;2023-11-18T13:07:15;5.85;;;4.68;;
70150;SDS011;57517;43.562;19.540;2023-11-18T13:09:46;7.82;;;4.40;;
70150;SDS011;57517;43.562;19.540;2023-11-18T13:12:13;5.53;;;3.63;;
70150;SDS011;57517;43.562;19.540;2023-11-18T13:14:45;6.72;;;5.40;;
70150;SDS011;57517;43.562;19.540;2023-11-18T13:17:13;6.88;;;4.70;;
70150;SDS011;57517;43.562;19.540;2023-11-18T13:19:43;7.05;;;5.07;;
70150;SDS011;57517;43.562;19.540;2023-11-18T13:22:10;6.88;;;5.20;;
70150;SDS011;57517;43.562;19.540;2023-11-18T13:24:40;7.90;;;5.90;;
70150;SDS011;57517;43.562;19.540;2023-11-18T13:27:10;11.88;;;7.88;;
70150;SDS011;57517;43.562;19.540;2023-11-18T13:29:44;14.15;;;8.93;;
70150;SDS011;57517;43.562;19.540;2023-11-18T13:32:14;12.68;;;7.60;;
70150;SDS011;57517;43.562;19.540;2023-11-18T13:34:40;7.30;;;5.13;;
70150;SDS011;57517;43.562;19.540;2023-11-18T13:37:07;6.72;;;4.72;;
70150;SDS011;57517;43.562;19.540;2023-11-18T13:39:35;5.35;;;3.75;;
70150;SDS011;57517;43.562;19.540;2023-11-18T13:45:11;10.55;;;7.22;;
70150;SDS011;57517;43.562;19.540;2023-11-18T13:47:48;9.68;;;6.63;;
70150;SDS011;57517;43.562;19.540;2023-11-18T13:50:17;12.27;;;8.65;;
70150;SDS011;57517;43.562;19.540;2023-11-18T13:52:44;7.97;;;5.20;;
70150;SDS011;57517;43.562;19.540;2023-11-18T13:55:11;7.50;;;5.05;;
70150;SDS011;57517;43.562;19.540;2023-11-18T13:57:52;11.07;;;7.90;;
70150;SDS011;57517;43.562;19.540;2023-11-18T14:00:22;10.38;;;7.55;;
70150;SDS011;57517;43.562;19.540;2023-11-18T14:02:53;15.45;;;10.60;;
70150;SDS011;57517;43.562;19.540;2023-11-18T14:05:21;26.50;;;15.77;;
70150;SDS011;57517;43.562;19.540;2023-11-18T14:07:49;12.38;;;8.02;;
70150;SDS011;57517;43.562;19.540;2023-11-18T14:10:24;13.13;;;8.30;;
70150;SDS011;57517;43.562;19.540;2023-11-18T14:13:05;29.30;;;20.38;;
70150;SDS011;57517;43.562;19.540;2023-11-18T14:15:37;18.85;;;11.35;;
70150;SDS011;57517;43.562;19.540;2023-11-18T14:18:03;31.13;;;21.15;;
70150;SDS011;57517;43.562;19.540;2023-11-18T14:20:32;20.38;;;13.52;;
70150;SDS011;57517;43.562;19.540;2023-11-18T14:23:00;18.58;;;12.48;;
70150;SDS011;57517;43.562;19.540;2023-11-18T14:25:28;18.27;;;11.30;;
70150;SDS011;57517;43.562;19.540;2023-11-18T14:27:54;13.63;;;10.20;;
70150;SDS011;57517;43.562;19.540;2023-11-18T14:30:21;22.38;;;14.65;;
70150;SDS011;57517;43.562;19.540;2023-11-18T14:32:50;15.50;;;12.23;;
70150;SDS011;57517;43.562;19.540;2023-11-18T14:35:17;15.05;;;8.95;;
70150;SDS011;57517;43.562;19.540;2023-11-18T14:37:43;30.00;;;18.77;;
70150;SDS011;57517;43.562;19.540;2023-11-18T14:40:13;29.75;;;21.98;;
70150;SDS011;57517;43.562;19.540;2023-11-18T14:42:43;26.13;;;17.83;;
70150;SDS011;57517;43.562;19.540;2023-11-18T14:45:16;27.95;;;20.35;;
70150;SDS011;57517;43.562;19.540;2023-11-18T14:47:43;22.55;;;16.30;;
70150;SDS011;57517;43.562;19.540;2023-11-18T14:50:19;23.63;;;16.63;;
70150;SDS011;57517;43.562;19.540;2023-11-18T14:52:49;31.08;;;21.42;;
70150;SDS011;57517;43.562;19.540;2023-11-18T14:55:17;23.38;;;16.02;;
70150;SDS011;57517;43.562;19.540;2023-11-18T14:57:43;19.60;;;15.27;;
70150;SDS011;57517;43.562;19.540;2023-11-18T15:00:10;11.32;;;8.55;;
70150;SDS011;57517;43.562;19.540;2023-11-18T15:02:53;12.68;;;9.07;;